Time;durP1;ratioP1;P1;durP2;ratioP2;P2;SDS_P1;SDS_P2;PMS_P1;PMS_P2;Temp;Humidity;BMP_temperature;BMP_pressure;BME280_temperature;BME280_humidity;BME280_pressure;Samples;Min_cycle;Max_cycle;Signal;HPM_P1;HPM_P2
2020/12/11 00:02:40;;;;;;;10.68;8.35;;;3.60;99.90;;;;;;5072218;28;20341;-74
2020/12/11 00:05:25;;;;;;;11.20;9.48;;;3.30;99.90;;;;;;5061072;28;20203;-74
2020/12/11 00:08:11;;;;;;;10.80;9.10;;;3.20;99.90;;;;;;5068730;28;20369;-73
2020/12/11 00:10:56;;;;;;;9.88;8.80;;;3.10;99.90;;;;;;5063031;28;20255;-73
2020/12/11 00:13:41;;;;;;;12.05;9.40;;;3.10;99.90;;;;;;5071441;28;20323;-74
2020/12/11 00:16:26;;;;;;;10.93;9.10;;;2.90;99.90;;;;;;5065207;28;20204;-74
2020/12/11 00:19:12;;;;;;;10.27;8.80;;;2.80;99.90;;;;;;5057780;28;20591;-74
2020/12/11 00:21:58;;;;;;;10.93;8.65;;;2.90;99.90;;;;;;5065313;28;20684;-73
2020/12/11 00:24:43;;;;;;;13.25;9.40;;;2.80;99.90;;;;;;5059584;28;20580;-74
2020/12/11 00:27:28;;;;;;;15.15;9.13;;;2.70;99.90;;;;;;5065527;28;20252;-74
2020/12/11 00:30:13;;;;;;;11.52;9.27;;;2.60;99.90;;;;;;5066396;28;20199;-74
2020/12/11 00:32:59;;;;;;;10.95;9.20;;;2.60;99.90;;;;;;5053953;28;20204;-74
2020/12/11 00:35:45;;;;;;;14.15;10.13;;;2.60;99.90;;;;;;5069288;28;20208;-74
2020/12/11 00:38:30;;;;;;;10.93;9.02;;;2.60;99.90;;;;;;5066803;28;20223;-74
2020/12/11 00:41:15;;;;;;;13.73;9.35;;;2.60;99.90;;;;;;5062418;28;20219;-74
2020/12/11 00:44:00;;;;;;;11.65;9.15;;;2.60;99.90;;;;;;5069419;28;20199;-74
2020/12/11 00:46:46;;;;;;;10.45;8.93;;;2.50;99.90;;;;;;5060751;28;20751;-74
2020/12/11 00:49:32;;;;;;;11.45;9.32;;;2.50;99.90;;;;;;5067525;28;20207;-74
2020/12/11 00:52:17;;;;;;;11.13;8.63;;;2.40;99.90;;;;;;5071263;28;20594;-74
2020/12/11 00:55:03;;;;;;;12.90;10.50;;;2.40;99.90;;;;;;5062967;28;21027;-74
2020/12/11 00:57:48;;;;;;;13.10;10.10;;;2.30;99.90;;;;;;5065364;28;20244;-74
2020/12/11 01:00:33;;;;;;;12.52;9.63;;;2.20;99.90;;;;;;5063772;28;20343;-75
2020/12/11 01:03:18;;;;;;;14.10;9.63;;;2.10;99.90;;;;;;5062304;28;20213;-74
2020/12/11 01:06:03;;;;;;;10.77;9.13;;;2.20;99.90;;;;;;5067036;28;20294;-73
2020/12/11 01:08:49;;;;;;;13.60;9.50;;;2.00;99.90;;;;;;5067721;28;20223;-74
2020/12/11 01:11:34;;;;;;;14.02;10.80;;;1.90;99.90;;;;;;5064209;28;20191;-74
2020/12/11 01:14:19;;;;;;;15.52;10.98;;;2.10;99.90;;;;;;5068355;28;20216;-74
2020/12/11 01:17:04;;;;;;;17.38;9.25;;;2.30;99.90;;;;;;5067484;28;20204;-74
2020/12/11 01:19:49;;;;;;;17.67;9.68;;;2.20;99.90;;;;;;5069787;28;20291;-73
2020/12/11 01:22:34;;;;;;;12.30;10.40;;;1.90;99.90;;;;;;5063405;28;20204;-74
2020/12/11 01:25:20;;;;;;;11.35;9.38;;;1.80;99.90;;;;;;5062828;28;20270;-74
2020/12/11 01:28:06;;;;;;;13.80;10.17;;;1.70;99.90;;;;;;5042232;28;723008;-74
2020/12/11 01:30:51;;;;;;;13.15;10.57;;;1.70;99.90;;;;;;5066843;28;20204;-74
2020/12/11 01:33:36;;;;;;;14.25;10.23;;;1.60;99.90;;;;;;5063223;28;20581;-73
2020/12/11 01:36:25;;;;;;;13.25;9.60;;;1.60;99.90;;;;;;5061060;28;20287;-73
2020/12/11 01:39:10;;;;;;;12.18;9.35;;;1.60;99.90;;;;;;5057596;28;20250;-74
2020/12/11 01:41:57;;;;;;;10.45;9.05;;;1.60;99.90;;;;;;5061358;28;20227;-73
2020/12/11 01:44:48;;;;;;;14.27;10.50;;;1.70;99.90;;;;;;5070160;28;20200;-73
2020/12/11 01:47:39;;;;;;;11.05;9.32;;;1.90;99.90;;;;;;5060719;28;20627;-74
2020/12/11 01:50:24;;;;;;;13.13;10.00;;;2.10;99.90;;;;;;5069343;28;20330;-74
2020/12/11 01:53:10;;;;;;;19.77;10.75;;;1.90;99.90;;;;;;5061300;28;20227;-74
2020/12/11 01:55:55;;;;;;;13.07;9.93;;;1.90;99.90;;;;;;5069713;28;20774;-73
2020/12/11 01:58:46;;;;;;;13.27;10.02;;;2.00;99.90;;;;;;5067724;28;20278;-74
2020/12/11 02:01:35;;;;;;;14.90;11.68;;;2.00;99.90;;;;;;5065656;28;20339;-74
2020/12/11 02:04:21;;;;;;;12.98;10.15;;;2.20;99.90;;;;;;5062716;28;20675;-74
2020/12/11 02:07:06;;;;;;;14.25;11.13;;;2.30;99.90;;;;;;5055916;28;20205;-74
2020/12/11 02:09:52;;;;;;;13.18;10.27;;;2.30;99.90;;;;;;5066344;28;20207;-74
2020/12/11 02:12:37;;;;;;;15.57;10.75;;;2.40;99.90;;;;;;5069010;28;20208;-73
2020/12/11 02:15:23;;;;;;;11.95;10.23;;;2.30;99.90;;;;;;5054442;28;20204;-74
2020/12/11 02:18:08;;;;;;;10.95;9.32;;;2.40;99.90;;;;;;5061143;28;20363;-73
2020/12/11 02:20:54;;;;;;;11.93;10.07;;;2.40;99.90;;;;;;5063614;28;20299;-74
2020/12/11 02:23:43;;;;;;;16.42;11.15;;;2.40;99.90;;;;;;5065906;28;20686;-73
2020/12/11 02:26:28;;;;;;;12.45;9.30;;;2.50;99.90;;;;;;5070754;28;20255;-73
2020/12/11 02:29:13;;;;;;;14.02;9.10;;;2.30;99.90;;;;;;5054531;28;20830;-74
2020/12/11 02:31:58;;;;;;;11.52;9.52;;;2.10;99.90;;;;;;5066172;28;20216;-74
2020/12/11 02:34:43;;;;;;;15.38;9.70;;;2.00;99.90;;;;;;5066855;28;20572;-74
2020/12/11 02:37:29;;;;;;;13.63;10.05;;;1.80;99.90;;;;;;5063039;28;20224;-74
2020/12/11 02:40:15;;;;;;;12.88;10.07;;;1.70;99.90;;;;;;5069992;28;20798;-74
2020/12/11 02:43:00;;;;;;;13.90;11.00;;;1.60;99.90;;;;;;5061703;28;20275;-74
2020/12/11 02:45:46;;;;;;;15.75;10.73;;;1.60;99.90;;;;;;5068531;28;20195;-74
2020/12/11 02:48:32;;;;;;;13.60;10.75;;;1.50;99.90;;;;;;5065131;28;20224;-74
2020/12/11 02:51:18;;;;;;;17.33;11.32;;;1.60;99.90;;;;;;5057343;28;20208;-74
2020/12/11 02:54:03;;;;;;;15.95;11.55;;;1.70;99.90;;;;;;5059941;28;20199;-74
2020/12/11 02:56:49;;;;;;;17.70;13.10;;;1.70;99.90;;;;;;5057795;28;20251;-74
2020/12/11 02:59:34;;;;;;;12.35;10.82;;;1.90;99.90;;;;;;5053890;28;20200;-74
2020/12/11 03:02:19;;;;;;;15.35;10.75;;;1.90;99.90;;;;;;5054646;28;20224;-73
2020/12/11 03:05:04;;;;;;;15.27;11.52;;;1.80;99.90;;;;;;5066572;28;20263;-74
2020/12/11 03:07:50;;;;;;;16.92;11.32;;;2.00;99.90;;;;;;5064478;28;20354;-74
2020/12/11 03:10:35;;;;;;;15.68;12.18;;;2.10;99.90;;;;;;5063815;28;20201;-74
2020/12/11 03:13:21;;;;;;;15.75;11.57;;;2.00;99.90;;;;;;5059182;28;20650;-73
2020/12/11 03:16:08;;;;;;;14.65;10.75;;;2.00;99.90;;;;;;5065210;28;20314;-74
2020/12/11 03:18:53;;;;;;;12.45;10.60;;;2.10;99.90;;;;;;5067840;28;20282;-73
2020/12/11 03:21:39;;;;;;;14.75;11.05;;;2.20;99.90;;;;;;5064678;28;20737;-74
2020/12/11 03:24:24;;;;;;;15.48;11.35;;;2.10;99.90;;;;;;5061038;28;20212;-73
2020/12/11 03:27:09;;;;;;;13.20;10.48;;;1.90;99.90;;;;;;5053253;28;20561;-74
2020/12/11 03:29:55;;;;;;;13.32;10.60;;;1.90;99.90;;;;;;5068903;28;20242;-73
2020/12/11 03:32:40;;;;;;;16.52;11.38;;;1.80;99.90;;;;;;5067771;28;20204;-73
2020/12/11 03:35:26;;;;;;;15.77;11.95;;;1.90;99.90;;;;;;5063032;28;20200;-74
2020/12/11 03:38:11;;;;;;;13.52;10.10;;;1.80;99.90;;;;;;5053701;28;20216;-74
2020/12/11 03:40:56;;;;;;;12.65;9.77;;;1.70;99.90;;;;;;5067236;28;20277;-72
2020/12/11 03:43:42;;;;;;;16.70;11.50;;;1.80;99.90;;;;;;5058020;28;20269;-73
2020/12/11 03:46:28;;;;;;;14.43;10.48;;;1.70;99.90;;;;;;5067633;28;20316;-74
2020/12/11 03:49:13;;;;;;;14.00;11.02;;;1.60;99.90;;;;;;5051327;28;20339;-74
2020/12/11 03:51:59;;;;;;;14.95;10.20;;;1.60;99.90;;;;;;5067982;28;20204;-73
2020/12/11 03:54:44;;;;;;;15.60;10.60;;;1.70;99.90;;;;;;5066236;28;20196;-73
2020/12/11 03:57:29;;;;;;;14.88;10.07;;;1.80;99.90;;;;;;5068850;28;20949;-74
2020/12/11 04:00:14;;;;;;;16.58;10.73;;;1.80;99.90;;;;;;5051255;28;20568;-74
2020/12/11 04:03:00;;;;;;;13.25;10.27;;;1.80;99.90;;;;;;5065312;28;20320;-74
2020/12/11 04:05:46;;;;;;;14.05;10.30;;;1.70;99.90;;;;;;5064631;28;20212;-74
2020/12/11 04:08:31;;;;;;;14.93;10.57;;;1.80;99.90;;;;;;5065669;28;20676;-74
2020/12/11 04:11:16;;;;;;;16.75;11.88;;;1.70;99.90;;;;;;5063690;28;20196;-74
2020/12/11 04:14:01;;;;;;;14.18;10.95;;;1.70;99.90;;;;;;5066582;28;20203;-74
2020/12/11 04:16:49;;;;;;;17.23;11.40;;;1.60;99.90;;;;;;5062508;28;20925;-74
2020/12/11 04:19:35;;;;;;;16.52;11.38;;;1.50;99.90;;;;;;5060315;28;20258;-73
2020/12/11 04:22:20;;;;;;;14.43;11.38;;;1.60;99.90;;;;;;5067039;28;20215;-73
2020/12/11 04:25:06;;;;;;;15.75;11.57;;;1.70;99.90;;;;;;5070281;28;20204;-74
2020/12/11 04:27:51;;;;;;;14.95;11.02;;;1.80;99.90;;;;;;5068522;28;20232;-74
2020/12/11 04:30:36;;;;;;;14.77;10.90;;;1.80;99.90;;;;;;5059501;28;20688;-74
2020/12/11 04:33:21;;;;;;;17.90;12.68;;;1.90;99.90;;;;;;5064825;28;20213;-74
2020/12/11 04:36:07;;;;;;;18.95;13.07;;;1.70;99.90;;;;;;5059872;28;20282;-73
2020/12/11 04:38:52;;;;;;;24.17;14.50;;;1.60;99.90;;;;;;5074006;28;20223;-74
2020/12/11 04:41:43;;;;;;;18.10;13.70;;;1.50;99.90;;;;;;5065812;28;20238;-74
2020/12/11 04:44:29;;;;;;;18.13;14.15;;;1.60;99.90;;;;;;5066153;28;20327;-74
2020/12/11 04:47:15;;;;;;;16.45;13.23;;;1.70;99.90;;;;;;5064077;28;20258;-73
2020/12/11 04:50:00;;;;;;;20.02;15.23;;;1.70;99.90;;;;;;5067807;28;20225;-74
2020/12/11 04:52:47;;;;;;;20.95;15.02;;;1.70;99.90;;;;;;5065124;28;20325;-74
2020/12/11 04:55:35;;;;;;;20.85;14.90;;;1.70;99.90;;;;;;5054012;28;20936;-74
2020/12/11 04:58:22;;;;;;;24.63;16.05;;;1.70;99.90;;;;;;5052965;28;20347;-74
2020/12/11 05:01:08;;;;;;;22.98;17.02;;;1.70;99.90;;;;;;5065314;28;20249;-74
2020/12/11 05:03:55;;;;;;;26.27;17.05;;;1.70;99.90;;;;;;5060266;28;20604;-73
2020/12/11 05:06:40;;;;;;;21.95;15.77;;;1.70;99.90;;;;;;5059028;28;20692;-74
2020/12/11 05:09:26;;;;;;;22.42;16.00;;;1.60;99.90;;;;;;5067352;28;20573;-74
2020/12/11 05:12:14;;;;;;;30.58;17.48;;;1.60;99.90;;;;;;5070474;28;20196;-74
2020/12/11 05:15:01;;;;;;;31.02;16.15;;;1.60;99.90;;;;;;5065703;28;20200;-74
2020/12/11 05:17:46;;;;;;;23.05;16.55;;;1.60;99.90;;;;;;5061706;28;20227;-74
2020/12/11 05:20:31;;;;;;;22.83;16.85;;;1.70;99.90;;;;;;5071718;28;20247;-73
2020/12/11 05:23:16;;;;;;;26.60;17.48;;;1.70;99.90;;;;;;5066742;28;20201;-74
2020/12/11 05:26:19;;;;;;;21.65;14.80;;;1.70;99.90;;;;;;5062372;28;20570;-74
2020/12/11 05:29:05;;;;;;;21.08;14.73;;;1.80;99.90;;;;;;5058435;28;20718;-73
2020/12/11 05:31:50;;;;;;;21.88;15.10;;;1.70;99.90;;;;;;5071408;28;20199;-74
2020/12/11 05:34:37;;;;;;;23.33;14.90;;;1.60;99.90;;;;;;5067038;28;20196;-73
2020/12/11 05:37:22;;;;;;;20.27;14.95;;;1.60;99.90;;;;;;5064059;28;20231;-74
2020/12/11 05:40:19;;;;;;;22.23;15.55;;;1.80;99.90;;;;;;5068445;28;20585;-74
2020/12/11 05:43:11;;;;;;;22.42;14.63;;;1.70;99.90;;;;;;5059947;28;20226;-73
2020/12/11 05:45:58;;;;;;;20.17;14.77;;;1.60;99.90;;;;;;5071235;28;20200;-73
2020/12/11 05:48:43;;;;;;;23.42;15.60;;;1.60;99.90;;;;;;5060425;28;20296;-74
2020/12/11 05:51:35;;;;;;;19.05;13.77;;;1.60;99.90;;;;;;5064724;28;20220;-73
2020/12/11 05:54:22;;;;;;;19.88;14.23;;;1.70;99.90;;;;;;5050302;28;20216;-73
2020/12/11 05:57:09;;;;;;;18.35;14.30;;;1.70;99.90;;;;;;5072110;28;20204;-74
2020/12/11 05:59:55;;;;;;;21.02;14.73;;;1.60;99.90;;;;;;5063127;28;20276;-74
2020/12/11 06:02:43;;;;;;;20.48;13.93;;;1.60;99.90;;;;;;5056541;28;20201;-74
2020/12/11 06:05:29;;;;;;;27.05;17.13;;;1.60;99.90;;;;;;5061180;28;20208;-74
2020/12/11 06:08:14;;;;;;;25.75;15.82;;;1.50;99.90;;;;;;5062806;28;20283;-73
2020/12/11 06:11:02;;;;;;;24.45;15.38;;;1.50;99.90;;;;;;5071041;28;20787;-73
2020/12/11 06:13:56;;;;;;;22.98;15.57;;;1.50;99.90;;;;;;5060583;28;20582;-73
2020/12/11 06:16:43;;;;;;;23.80;15.50;;;1.50;99.90;;;;;;5067827;28;20326;-74
2020/12/11 06:19:29;;;;;;;23.60;16.10;;;1.70;99.90;;;;;;5060949;28;20676;-73
2020/12/11 06:22:15;;;;;;;20.02;13.98;;;1.60;99.90;;;;;;5065082;28;20224;-73
2020/12/11 06:25:24;;;;;;;20.98;14.88;;;1.50;99.90;;;;;;5061563;28;20208;-73
2020/12/11 06:28:09;;;;;;;20.80;14.65;;;1.60;99.90;;;;;;5065288;28;20259;-74
2020/12/11 06:30:54;;;;;;;23.38;15.40;;;1.60;99.90;;;;;;5055620;28;20850;-73
2020/12/11 06:33:42;;;;;;;21.42;15.25;;;1.50;99.90;;;;;;5057217;28;20331;-73
2020/12/11 06:36:27;;;;;;;25.75;15.95;;;1.60;99.90;;;;;;5062654;28;20196;-73
2020/12/11 06:39:33;;;;;;;23.38;15.25;;;1.70;99.90;;;;;;5056999;28;20302;-73
2020/12/11 06:42:43;;;;;;;23.58;16.95;;;1.80;99.90;;;;;;5057420;28;20375;-74
2020/12/11 06:45:29;;;;;;;24.38;16.10;;;1.70;99.90;;;;;;5059005;28;20337;-74
2020/12/11 06:48:14;;;;;;;21.70;15.55;;;1.70;99.90;;;;;;5063914;28;20228;-73
2020/12/11 06:51:04;;;;;;;23.60;17.10;;;1.60;99.90;;;;;;5066894;28;20220;-73
2020/12/11 06:53:49;;;;;;;25.48;17.95;;;1.70;99.90;;;;;;5058941;28;20212;-74
2020/12/11 06:56:42;;;;;;;25.90;17.35;;;1.70;99.90;;;;;;5059467;28;20204;-74
2020/12/11 06:59:29;;;;;;;24.83;18.13;;;1.80;99.90;;;;;;5053218;28;20205;-74
2020/12/11 07:02:16;;;;;;;28.52;18.90;;;1.80;99.90;;;;;;5060725;28;20302;-73
2020/12/11 07:05:01;;;;;;;30.15;20.35;;;1.90;99.90;;;;;;5065866;28;20573;-73
2020/12/11 07:07:47;;;;;;;29.73;19.63;;;1.90;99.90;;;;;;5066337;28;20219;-74
2020/12/11 07:10:32;;;;;;;29.10;19.10;;;2.00;99.90;;;;;;5068218;28;20207;-73
2020/12/11 07:13:17;;;;;;;26.13;18.52;;;1.90;99.90;;;;;;5064279;28;20217;-74
2020/12/11 07:16:03;;;;;;;24.33;16.67;;;2.00;99.90;;;;;;5064777;28;20195;-73
2020/12/11 07:18:49;;;;;;;23.92;16.83;;;1.90;99.90;;;;;;5069276;28;20239;-74
2020/12/11 07:21:34;;;;;;;23.60;16.98;;;2.00;99.90;;;;;;5063029;28;20223;-74
2020/12/11 07:24:21;;;;;;;22.27;15.55;;;2.00;99.90;;;;;;5062346;28;20593;-73
2020/12/11 07:27:07;;;;;;;21.88;16.52;;;2.00;99.90;;;;;;5060199;28;20349;-74
2020/12/11 07:29:52;;;;;;;23.55;17.10;;;2.10;99.90;;;;;;5063912;28;20207;-74
2020/12/11 07:32:38;;;;;;;26.17;17.67;;;2.00;99.90;;;;;;5064260;28;20635;-74
2020/12/11 07:35:24;;;;;;;25.20;19.23;;;2.00;99.90;;;;;;5066378;28;20211;-73
2020/12/11 07:38:09;;;;;;;25.75;17.25;;;2.00;99.90;;;;;;5064182;28;20231;-74
2020/12/11 07:40:56;;;;;;;27.55;17.73;;;1.90;99.90;;;;;;5064662;28;20694;-73
2020/12/11 07:43:46;;;;;;;23.50;16.80;;;1.90;99.90;;;;;;5066735;28;20212;-72
2020/12/11 07:46:31;;;;;;;26.00;16.30;;;2.10;99.90;;;;;;5066516;28;20319;-71
2020/12/11 07:49:17;;;;;;;25.02;17.83;;;2.10;99.90;;;;;;5052589;28;20270;-74
2020/12/11 07:52:02;;;;;;;27.25;18.05;;;2.20;99.90;;;;;;5066517;28;20193;-74
2020/12/11 07:54:48;;;;;;;26.50;18.20;;;2.40;99.90;;;;;;5067084;28;20200;-76
2020/12/11 07:57:33;;;;;;;26.10;17.02;;;2.40;99.90;;;;;;5067456;28;20981;-76
2020/12/11 08:00:19;;;;;;;27.65;18.13;;;2.50;99.90;;;;;;5058626;28;20209;-74
2020/12/11 08:03:06;;;;;;;25.65;17.45;;;2.50;99.90;;;;;;5064583;28;20223;-75
2020/12/11 08:05:51;;;;;;;25.75;17.30;;;2.60;99.90;;;;;;5062586;28;20211;-75
2020/12/11 08:08:36;;;;;;;23.17;16.48;;;2.60;99.90;;;;;;5073328;28;20247;-76
2020/12/11 08:11:25;;;;;;;23.05;17.30;;;2.40;99.90;;;;;;5056021;28;20683;-76
2020/12/11 08:14:11;;;;;;;23.23;16.30;;;2.30;99.90;;;;;;5067114;28;20211;-75
2020/12/11 08:17:02;;;;;;;21.10;15.57;;;2.20;99.90;;;;;;5068044;28;20204;-74
2020/12/11 08:19:57;;;;;;;31.92;16.75;;;2.20;99.90;;;;;;5062223;28;20201;-74
2020/12/11 08:22:43;;;;;;;27.33;18.20;;;2.10;99.90;;;;;;5067706;28;20310;-76
2020/12/11 08:25:28;;;;;;;24.38;15.63;;;2.20;99.90;;;;;;5069025;28;20255;-76
2020/12/11 08:28:13;;;;;;;27.45;16.40;;;2.30;99.90;;;;;;5064029;28;20220;-76
2020/12/11 08:31:22;;;;;;;25.90;17.55;;;2.40;99.90;;;;;;5069882;28;20220;-76
2020/12/11 08:34:09;;;;;;;25.50;16.45;;;2.50;99.90;;;;;;5064046;28;20205;-77
2020/12/11 08:37:02;;;;;;;28.75;17.75;;;2.60;99.90;;;;;;5071114;28;20211;-76
2020/12/11 08:39:47;;;;;;;25.85;16.90;;;2.60;99.90;;;;;;5068487;28;20322;-75
2020/12/11 08:42:41;;;;;;;23.83;17.15;;;2.60;99.90;;;;;;5059630;28;20240;-75
2020/12/11 08:45:30;;;;;;;27.05;17.75;;;2.70;99.90;;;;;;5065173;28;20625;-74
2020/12/11 08:51:19;;;;;;;23.95;16.20;;;2.60;99.90;;;;;;5073579;28;20282;-76
2020/12/11 08:54:05;;;;;;;25.90;17.52;;;2.70;99.90;;;;;;5057535;28;20686;-75
2020/12/11 08:56:50;;;;;;;26.95;16.02;;;2.70;99.90;;;;;;5064868;28;20212;-75
2020/12/11 08:59:35;;;;;;;30.27;19.52;;;2.90;99.90;;;;;;5065921;28;20659;-76
2020/12/11 09:02:20;;;;;;;28.83;18.27;;;3.00;99.90;;;;;;5053462;28;20303;-76
2020/12/11 09:05:06;;;;;;;28.88;19.00;;;3.00;99.90;;;;;;5059550;28;20204;-75
2020/12/11 09:07:52;;;;;;;25.73;17.80;;;3.10;99.90;;;;;;5066452;28;20317;-76
2020/12/11 09:10:37;;;;;;;27.85;19.60;;;3.10;99.90;;;;;;5067379;28;20204;-75
2020/12/11 09:13:23;;;;;;;28.52;19.30;;;3.10;99.90;;;;;;5058173;28;20356;-77
2020/12/11 09:16:08;;;;;;;29.13;19.65;;;3.20;99.90;;;;;;5064656;28;20214;-75
2020/12/11 09:18:53;;;;;;;29.67;18.77;;;3.20;99.90;;;;;;5070594;28;20328;-76
2020/12/11 09:21:39;;;;;;;25.33;17.13;;;3.20;99.90;;;;;;5064579;28;20242;-76
2020/12/11 09:24:24;;;;;;;28.85;18.73;;;3.20;99.90;;;;;;5060068;28;20220;-75
2020/12/11 09:27:11;;;;;;;28.55;18.50;;;3.30;99.90;;;;;;5066182;28;20285;-76
2020/12/11 09:30:06;;;;;;;26.95;17.48;;;3.40;99.90;;;;;;5063095;28;20692;-77
2020/12/11 09:32:59;;;;;;;23.70;17.27;;;3.50;99.90;;;;;;5062982;28;20263;-76
2020/12/11 09:35:45;;;;;;;24.33;15.65;;;3.60;99.90;;;;;;5061187;28;20227;-76
2020/12/11 09:38:31;;;;;;;26.27;17.20;;;3.80;99.90;;;;;;5060379;28;20232;-73
2020/12/11 09:41:18;;;;;;;27.77;16.00;;;3.90;99.90;;;;;;5062726;28;20397;-75
2020/12/11 09:47:31;;;;;;;26.52;17.52;;;4.10;99.90;;;;;;5062422;28;20196;-73
2020/12/11 09:53:46;;;;;;;23.80;15.88;;;4.20;99.90;;;;;;5060784;28;20200;-75
2020/12/11 09:56:33;;;;;;;23.70;16.33;;;4.30;99.90;;;;;;5052087;28;20193;-76
2020/12/11 09:59:20;;;;;;;21.88;15.60;;;4.40;99.90;;;;;;5049140;28;20287;-76
2020/12/11 10:02:14;;;;;;;22.27;14.90;;;4.50;99.90;;;;;;5049451;28;20228;-74
2020/12/11 10:04:59;;;;;;;23.35;14.63;;;4.60;99.90;;;;;;5048841;28;20283;-75
2020/12/11 10:07:44;;;;;;;22.90;16.05;;;4.70;99.90;;;;;;5053260;28;20576;-76
2020/12/11 10:10:30;;;;;;;21.98;14.77;;;4.80;99.90;;;;;;5070233;28;20698;-76
2020/12/11 10:13:16;;;;;;;22.42;14.77;;;4.80;99.90;;;;;;5066054;28;20579;-76
2020/12/11 10:16:01;;;;;;;20.52;13.90;;;4.90;99.90;;;;;;5065371;28;20931;-76
2020/12/11 10:18:46;;;;;;;20.27;14.30;;;4.90;99.90;;;;;;5056703;28;20220;-76
2020/12/11 10:21:31;;;;;;;21.00;14.30;;;5.00;99.90;;;;;;5067088;28;20231;-76
2020/12/11 10:24:17;;;;;;;21.70;14.70;;;4.90;99.90;;;;;;5051743;28;20224;-76
2020/12/11 10:27:03;;;;;;;21.30;14.65;;;4.90;99.90;;;;;;5060870;28;20276;-76
2020/12/11 10:29:49;;;;;;;21.25;13.52;;;5.00;99.90;;;;;;5061239;28;20295;-73
2020/12/11 10:32:34;;;;;;;21.38;13.75;;;5.00;99.90;;;;;;5063983;28;20195;-76
2020/12/11 10:35:19;;;;;;;22.48;14.18;;;5.00;99.90;;;;;;5060054;28;20203;-75
2020/12/11 10:38:05;;;;;;;26.58;16.27;;;5.10;99.90;;;;;;5053241;28;20318;-76
2020/12/11 10:40:50;;;;;;;21.67;14.70;;;5.30;99.90;;;;;;5064818;28;20211;-76
2020/12/11 10:43:35;;;;;;;22.20;15.30;;;5.40;99.90;;;;;;5065185;28;20196;-74
2020/12/11 10:46:21;;;;;;;22.45;14.25;;;5.40;99.90;;;;;;5059231;28;20749;-77
2020/12/11 10:49:06;;;;;;;20.60;13.82;;;5.30;99.90;;;;;;5059947;28;20236;-76
2020/12/11 10:51:52;;;;;;;21.13;14.52;;;5.20;99.90;;;;;;5063374;28;20730;-74
2020/12/11 10:54:37;;;;;;;20.40;14.18;;;5.10;99.90;;;;;;5056413;28;20208;-76
2020/12/11 10:57:22;;;;;;;25.02;14.65;;;5.10;99.90;;;;;;5056485;28;20358;-76
2020/12/11 11:00:07;;;;;;;22.95;15.13;;;5.10;99.90;;;;;;5054037;28;20204;-76
2020/12/11 11:02:53;;;;;;;19.15;13.95;;;5.00;99.90;;;;;;5063737;28;20630;-76
2020/12/11 11:05:40;;;;;;;23.23;14.70;;;5.00;99.90;;;;;;5058602;28;20330;-74
2020/12/11 11:08:34;;;;;;;23.50;14.70;;;5.00;99.90;;;;;;5064739;28;20223;-73
2020/12/11 11:11:27;;;;;;;20.23;13.50;;;5.00;99.90;;;;;;5056678;28;20204;-72
2020/12/11 11:14:31;;;;;;;23.10;15.38;;;5.00;99.90;;;;;;5063107;28;20199;-74
2020/12/11 11:20:43;;;;;;;22.33;14.32;;;5.10;99.90;;;;;;5044496;28;20358;-73
2020/12/11 11:23:51;;;;;;;22.73;14.63;;;5.10;99.90;;;;;;5067969;28;20193;-73
2020/12/11 11:29:36;;;;;;;22.52;14.82;;;5.20;99.90;;;;;;5067561;28;20616;-74
2020/12/11 11:32:21;;;;;;;19.98;14.13;;;5.20;99.90;;;;;;5061206;28;20574;-74
2020/12/11 11:35:06;;;;;;;19.73;14.02;;;5.20;99.90;;;;;;5054763;28;20215;-74
2020/12/11 11:37:52;;;;;;;22.30;14.60;;;5.30;99.90;;;;;;5069703;28;20235;-76
2020/12/11 11:40:39;;;;;;;18.27;12.07;;;5.30;99.90;;;;;;5067032;28;20278;-76
2020/12/11 11:43:35;;;;;;;23.63;14.55;;;5.30;99.90;;;;;;5065997;28;20751;-74
2020/12/11 11:46:20;;;;;;;21.05;13.23;;;5.30;99.90;;;;;;5062568;28;20253;-74
2020/12/11 11:49:06;;;;;;;20.63;14.43;;;5.30;99.90;;;;;;5057329;28;20817;-75
2020/12/11 11:51:56;;;;;;;18.95;12.98;;;5.40;99.90;;;;;;5061678;28;20584;-73
2020/12/11 11:54:42;;;;;;;20.60;14.30;;;5.40;99.90;;;;;;5071413;28;20200;-76
2020/12/11 11:57:27;;;;;;;23.42;14.90;;;5.40;99.90;;;;;;5064407;28;20584;-75
2020/12/11 12:00:13;;;;;;;19.42;14.23;;;5.50;99.90;;;;;;5059791;28;20332;-74
2020/12/11 12:02:58;;;;;;;20.27;13.70;;;5.50;99.90;;;;;;5066679;28;20231;-76
2020/12/11 12:05:43;;;;;;;20.50;14.50;;;5.50;99.90;;;;;;5068489;28;20290;-72
2020/12/11 12:08:28;;;;;;;20.40;12.93;;;5.40;99.90;;;;;;5068538;28;20362;-76
2020/12/11 12:11:14;;;;;;;22.88;14.68;;;5.40;99.90;;;;;;5061770;28;20342;-73
2020/12/11 12:14:00;;;;;;;18.70;13.70;;;5.40;99.90;;;;;;5063748;28;20266;-74
2020/12/11 12:16:46;;;;;;;18.45;12.52;;;5.50;99.90;;;;;;5067414;28;20212;-75
2020/12/11 12:19:34;;;;;;;23.00;12.77;;;5.60;99.90;;;;;;5057522;28;20204;-76
2020/12/11 12:31:38;;;;;;;20.60;14.07;;;5.60;99.90;;;;;;5067644;28;20215;-74
2020/12/11 12:37:34;;;;;;;18.90;12.95;;;5.60;99.90;;;;;;5065774;28;20764;-75
2020/12/11 12:43:23;;;;;;;16.90;12.23;;;5.70;99.90;;;;;;5064153;28;20629;-74
2020/12/11 12:46:09;;;;;;;21.65;13.13;;;5.80;99.90;;;;;;5065512;28;20204;-76
2020/12/11 12:48:54;;;;;;;20.80;14.55;;;5.90;99.90;;;;;;5071503;28;20223;-76
2020/12/11 12:51:40;;;;;;;18.90;12.65;;;6.00;99.90;;;;;;5067277;28;20997;-76
2020/12/11 12:54:25;;;;;;;18.75;13.27;;;6.00;99.90;;;;;;5070569;28;20610;-76
2020/12/11 12:57:15;;;;;;;20.10;11.73;;;6.00;99.90;;;;;;5067912;28;20200;-76
2020/12/11 13:00:09;;;;;;;18.95;12.70;;;6.00;99.90;;;;;;5070371;28;20610;-76
2020/12/11 13:05:55;;;;;;;19.30;13.57;;;6.10;99.90;;;;;;5061362;28;20239;-76
2020/12/11 13:08:40;;;;;;;16.67;12.25;;;6.10;99.90;;;;;;5066569;28;20227;-76
2020/12/11 13:11:25;;;;;;;19.42;13.70;;;6.00;99.90;;;;;;5063857;28;20636;-76
2020/12/11 13:14:10;;;;;;;27.52;12.68;;;6.00;99.90;;;;;;5067805;28;20730;-74
2020/12/11 13:16:55;;;;;;;19.83;14.93;;;6.00;99.90;;;;;;5070194;28;20216;-76
2020/12/11 13:19:41;;;;;;;20.75;14.00;;;6.00;99.90;;;;;;5068708;28;20698;-75
2020/12/11 13:22:33;;;;;;;22.40;12.98;;;6.00;99.90;;;;;;5068666;28;20270;-75
2020/12/11 13:25:43;;;;;;;19.63;14.10;;;6.00;99.90;;;;;;5062947;28;20347;-76
2020/12/11 13:28:28;;;;;;;17.02;11.35;;;6.00;99.90;;;;;;5066651;28;20259;-76
2020/12/11 13:31:16;;;;;;;18.20;12.18;;;6.00;99.90;;;;;;5064794;28;20215;-76
2020/12/11 13:34:02;;;;;;;17.55;12.23;;;6.10;99.90;;;;;;5067005;28;20216;-75
2020/12/11 13:36:48;;;;;;;18.60;13.10;;;6.10;99.90;;;;;;5067425;28;20208;-76
2020/12/11 13:39:33;;;;;;;22.83;14.40;;;6.20;99.90;;;;;;5067639;28;20275;-76
2020/12/11 13:42:18;;;;;;;18.63;13.10;;;6.10;99.90;;;;;;5060256;28;20704;-76
2020/12/11 13:45:03;;;;;;;20.42;13.85;;;6.00;99.90;;;;;;5062646;28;20556;-76
2020/12/11 13:47:49;;;;;;;21.88;13.55;;;6.00;99.90;;;;;;5066297;28;20255;-75
2020/12/11 13:50:34;;;;;;;23.60;12.82;;;5.90;99.90;;;;;;5062635;28;20245;-76
2020/12/11 13:53:21;;;;;;;26.75;13.98;;;5.80;99.90;;;;;;5065680;28;20290;-76
2020/12/11 13:56:06;;;;;;;18.45;12.82;;;5.80;99.90;;;;;;5064391;28;20207;-76
2020/12/11 13:58:51;;;;;;;17.20;12.45;;;5.80;99.90;;;;;;5063904;28;20236;-73
2020/12/11 14:01:36;;;;;;;18.77;13.43;;;5.80;99.90;;;;;;5064285;28;20216;-75
2020/12/11 14:04:21;;;;;;;23.08;12.95;;;5.80;99.90;;;;;;5060662;28;20310;-76
2020/12/11 14:07:07;;;;;;;17.90;13.43;;;5.80;99.90;;;;;;5071741;28;20620;-77
2020/12/11 14:09:52;;;;;;;17.77;11.80;;;5.90;99.90;;;;;;5070295;28;20220;-74
2020/12/11 14:12:38;;;;;;;17.35;12.40;;;5.90;99.90;;;;;;5062526;28;20577;-74
2020/12/11 14:15:23;;;;;;;18.60;12.45;;;5.90;99.90;;;;;;5047654;28;20209;-77
2020/12/11 14:18:25;;;;;;;18.15;12.55;;;6.00;99.90;;;;;;5055384;28;20286;-73
2020/12/11 14:21:36;;;;;;;19.80;12.07;;;6.00;99.90;;;;;;5068259;28;20322;-77
2020/12/11 14:24:21;;;;;;;16.85;11.95;;;6.10;99.90;;;;;;5051067;28;20695;-76
2020/12/11 14:27:07;;;;;;;16.70;11.85;;;6.10;99.90;;;;;;5056883;28;20211;-73
2020/12/11 14:29:52;;;;;;;17.48;11.73;;;6.20;99.90;;;;;;5065538;28;20196;-76
2020/12/11 14:32:37;;;;;;;19.77;13.05;;;6.10;99.90;;;;;;5061873;28;20293;-76
2020/12/11 14:35:23;;;;;;;17.92;11.02;;;6.20;99.90;;;;;;5065310;28;20283;-75
2020/12/11 14:38:17;;;;;;;15.77;10.80;;;6.10;99.90;;;;;;5063957;28;20282;-76
2020/12/11 14:41:02;;;;;;;14.18;9.65;;;6.10;99.90;;;;;;5065060;28;20668;-74
2020/12/11 14:43:48;;;;;;;15.18;10.27;;;6.10;99.90;;;;;;5068248;28;20318;-75
2020/12/11 14:46:34;;;;;;;15.32;10.18;;;5.90;99.90;;;;;;5065144;28;20195;-76
2020/12/11 14:49:20;;;;;;;16.85;12.38;;;5.90;99.90;;;;;;5062548;28;20729;-76
2020/12/11 14:52:06;;;;;;;15.93;10.90;;;5.90;99.90;;;;;;5063251;28;20682;-75
2020/12/11 14:54:52;;;;;;;16.75;10.77;;;5.90;99.90;;;;;;5062467;28;20625;-76